createdAt,value
2024-01-11T00:00:20.550Z,15.07
2024-01-11T00:03:05.741Z,16.05
2024-01-11T00:05:52.161Z,18.83
2024-01-11T00:08:37.912Z,15.70
2024-01-11T00:11:23.506Z,18.60
2024-01-11T00:14:09.000Z,17.95
2024-01-11T00:16:54.306Z,19.35
2024-01-11T00:19:39.849Z,13.95
2024-01-11T00:22:25.286Z,18.10
2024-01-11T00:25:10.767Z,17.10
2024-01-11T00:27:56.300Z,17.23
2024-01-11T00:30:41.819Z,15.98
2024-01-11T00:33:27.356Z,17.77
2024-01-11T00:36:20.044Z,18.55
2024-01-11T00:39:05.371Z,17.42
2024-01-11T00:41:54.962Z,17.63
2024-01-11T00:44:40.502Z,20.38
2024-01-11T00:47:26.435Z,17.58
2024-01-11T00:50:12.548Z,18.27
2024-01-11T00:52:58.322Z,18.20
2024-01-11T00:55:44.292Z,16.70
2024-01-11T00:58:29.884Z,20.23
2024-01-11T01:01:15.100Z,15.63
2024-01-11T01:04:00.518Z,17.95
2024-01-11T01:06:46.665Z,21.52
2024-01-11T01:09:32.017Z,20.20
2024-01-11T01:12:17.551Z,18.50
2024-01-11T01:15:03.175Z,19.70
2024-01-11T01:17:50.452Z,19.40
2024-01-11T01:20:36.183Z,19.33
2024-01-11T01:23:21.954Z,18.65
2024-01-11T01:26:08.276Z,18.10
2024-01-11T01:28:53.545Z,20.63
2024-01-11T01:31:39.871Z,19.95
2024-01-11T01:34:25.155Z,20.02
2024-01-11T01:37:10.752Z,21.63
2024-01-11T01:39:56.057Z,20.13
2024-01-11T01:42:46.012Z,19.65
2024-01-11T01:45:31.435Z,18.50
2024-01-11T01:48:17.232Z,18.65
2024-01-11T01:51:03.353Z,18.17
2024-01-11T01:53:49.783Z,20.67
2024-01-11T01:56:35.452Z,18.92
2024-01-11T01:59:22.226Z,17.17
2024-01-11T02:02:08.551Z,18.77
2024-01-11T02:04:54.480Z,17.15
2024-01-11T02:07:40.947Z,20.35
2024-01-11T02:10:26.382Z,20.73
2024-01-11T02:13:14.054Z,22.27
2024-01-11T02:15:59.610Z,20.63
2024-01-11T02:18:45.296Z,17.90
2024-01-11T02:21:33.885Z,18.00
2024-01-11T02:24:19.451Z,20.58
2024-01-11T02:27:05.946Z,19.48
2024-01-11T02:29:51.649Z,20.98
2024-01-11T02:32:37.254Z,22.52
2024-01-11T02:35:23.097Z,22.98
2024-01-11T02:38:09.006Z,20.65
2024-01-11T02:40:55.688Z,23.88
2024-01-11T02:43:40.883Z,21.23
2024-01-11T02:46:26.516Z,21.40
2024-01-11T02:49:12.038Z,22.70
2024-01-11T02:51:57.413Z,21.98
2024-01-11T02:54:42.849Z,25.05
2024-01-11T02:57:28.342Z,21.52
2024-01-11T03:00:14.261Z,23.45
2024-01-11T03:02:59.743Z,22.60
2024-01-11T03:05:45.286Z,21.98
2024-01-11T03:08:30.821Z,21.35
2024-01-11T03:11:17.734Z,18.67
2024-01-11T03:14:03.793Z,18.23
2024-01-11T03:16:49.634Z,20.92
2024-01-11T03:19:35.297Z,22.05
2024-01-11T03:22:20.722Z,20.70
2024-01-11T03:25:06.671Z,20.55
2024-01-11T03:27:52.274Z,22.23
2024-01-11T03:30:37.811Z,21.10
2024-01-11T03:33:23.391Z,21.83
2024-01-11T03:36:10.727Z,22.60
2024-01-11T03:38:56.091Z,24.85
2024-01-11T03:41:46.233Z,25.67
2024-01-11T03:44:32.429Z,26.63
2024-01-11T03:47:17.808Z,31.63
2024-01-11T03:50:04.630Z,29.10
2024-01-11T03:52:50.024Z,28.27
2024-01-11T03:55:35.503Z,31.27
2024-01-11T03:58:21.294Z,26.63
2024-01-11T04:01:08.385Z,24.67
2024-01-11T04:03:53.591Z,26.92
2024-01-11T04:06:39.524Z,34.45
2024-01-11T04:09:25.273Z,30.40
2024-01-11T04:12:11.043Z,31.30
2024-01-11T04:14:56.305Z,31.45
2024-01-11T04:17:42.066Z,31.30
2024-01-11T04:20:27.953Z,30.00
2024-01-11T04:23:13.241Z,31.45
2024-01-11T04:25:58.745Z,32.50
2024-01-11T04:28:48.959Z,31.55
2024-01-11T04:31:34.757Z,33.63
2024-01-11T04:34:20.021Z,35.40
2024-01-11T04:37:05.658Z,37.25
2024-01-11T04:39:51.205Z,38.65
2024-01-11T04:42:36.906Z,35.00
2024-01-11T04:45:22.834Z,36.65
2024-01-11T04:48:08.187Z,35.83
2024-01-11T04:50:53.716Z,35.17
2024-01-11T04:53:43.357Z,35.80
2024-01-11T04:56:30.734Z,36.95
2024-01-11T04:59:16.364Z,39.20
2024-01-11T05:02:01.891Z,35.83
2024-01-11T05:04:47.865Z,40.28
2024-01-11T05:07:33.152Z,37.40
2024-01-11T05:10:18.594Z,38.22
2024-01-11T05:13:04.410Z,39.58
2024-01-11T05:15:49.987Z,38.53
2024-01-11T05:18:35.766Z,38.03
2024-01-11T05:21:22.236Z,38.50
2024-01-11T05:24:10.975Z,41.22
2024-01-11T05:26:57.499Z,35.50
2024-01-11T05:29:43.027Z,40.22
2024-01-11T05:32:28.503Z,41.78
2024-01-11T05:35:15.014Z,37.60
2024-01-11T05:38:00.260Z,41.75
2024-01-11T05:40:45.670Z,41.80
2024-01-11T05:43:31.209Z,40.25
2024-01-11T05:46:16.786Z,37.17
2024-01-11T05:49:02.704Z,42.05
2024-01-11T05:51:48.482Z,36.92
2024-01-11T05:54:33.919Z,37.80
2024-01-11T05:57:19.579Z,37.05
2024-01-11T06:00:06.423Z,38.10
2024-01-11T06:02:51.769Z,34.47
2024-01-11T06:05:37.446Z,29.02
2024-01-11T06:08:22.916Z,29.48
2024-01-11T06:11:08.941Z,31.38
2024-01-11T06:13:55.480Z,31.88
2024-01-11T06:16:41.936Z,33.08
2024-01-11T06:19:27.467Z,29.00
2024-01-11T06:22:12.856Z,26.80
2024-01-11T06:25:00.274Z,27.40
2024-01-11T06:27:45.866Z,23.02
2024-01-11T06:30:31.078Z,21.60
2024-01-11T06:33:16.998Z,25.73
2024-01-11T06:36:02.433Z,29.67
2024-01-11T06:38:47.915Z,32.63
2024-01-11T06:41:33.431Z,39.35
2024-01-11T06:44:19.271Z,38.97
2024-01-11T06:47:06.691Z,44.72
2024-01-11T06:49:52.192Z,51.65
2024-01-11T06:52:37.470Z,46.42
2024-01-11T06:55:23.149Z,51.00
2024-01-11T06:58:08.576Z,52.65
2024-01-11T07:00:55.040Z,52.40
2024-01-11T07:03:40.860Z,49.55
2024-01-11T07:06:26.337Z,49.42
2024-01-11T07:09:12.160Z,49.95
2024-01-11T07:11:57.680Z,48.10
2024-01-11T07:14:44.068Z,46.03
2024-01-11T07:17:29.576Z,48.90
2024-01-11T07:20:17.336Z,48.00
2024-01-11T07:23:03.300Z,47.78
2024-01-11T07:25:48.845Z,50.63
2024-01-11T07:28:34.003Z,46.45
2024-01-11T07:31:19.678Z,50.92
2024-01-11T07:34:05.968Z,44.05
2024-01-11T07:36:53.521Z,51.17
2024-01-11T07:39:39.301Z,48.47
2024-01-11T07:42:25.586Z,48.63
2024-01-11T07:45:11.610Z,46.58
2024-01-11T07:47:57.690Z,41.08
2024-01-11T07:50:42.996Z,44.05
2024-01-11T07:53:28.585Z,41.83
2024-01-11T07:56:14.986Z,35.97
2024-01-11T07:59:00.503Z,32.80
2024-01-11T08:01:46.508Z,37.58
2024-01-11T08:04:31.988Z,42.10
2024-01-11T08:07:17.483Z,44.92
2024-01-11T08:10:05.032Z,48.00
2024-01-11T08:12:50.454Z,46.92
2024-01-11T08:15:35.964Z,53.80
2024-01-11T08:18:21.415Z,46.70
2024-01-11T08:21:10.653Z,47.53
2024-01-11T08:23:57.538Z,49.70
2024-01-11T08:26:45.893Z,48.40
2024-01-11T08:29:31.591Z,48.17
2024-01-11T08:32:28.172Z,48.40
2024-01-11T08:35:17.725Z,46.42
2024-01-11T08:38:04.355Z,48.55
2024-01-11T08:40:49.772Z,49.80
2024-01-11T08:43:35.255Z,48.30
2024-01-11T08:46:27.940Z,50.25
2024-01-11T08:49:13.804Z,48.00
2024-01-11T08:51:59.242Z,47.83
2024-01-11T08:54:44.630Z,47.22
2024-01-11T08:57:30.534Z,47.63
2024-01-11T09:00:19.129Z,47.35
2024-01-11T09:03:05.505Z,46.90
2024-01-11T09:05:51.823Z,49.38
2024-01-11T09:08:37.668Z,52.85
2024-01-11T09:11:23.366Z,47.83
2024-01-11T09:14:12.180Z,48.88
2024-01-11T09:16:57.621Z,46.38
2024-01-11T09:19:43.437Z,46.22
2024-01-11T09:22:29.331Z,54.42
2024-01-11T09:25:15.760Z,52.83
2024-01-11T09:28:01.080Z,49.55
2024-01-11T09:30:46.968Z,49.72
2024-01-11T09:33:32.639Z,47.78
2024-01-11T09:36:18.661Z,47.15
2024-01-11T09:39:04.251Z,43.47
2024-01-11T09:41:58.891Z,44.95
2024-01-11T09:44:45.368Z,38.92
2024-01-11T09:47:31.786Z,38.30
2024-01-11T09:50:19.088Z,36.30
2024-01-11T09:53:08.830Z,34.20
2024-01-11T09:55:56.503Z,35.67
2024-01-11T09:58:50.877Z,37.55
2024-01-11T10:01:36.639Z,33.45
2024-01-11T10:04:22.589Z,34.75
2024-01-11T10:07:09.318Z,32.90
2024-01-11T10:09:54.873Z,40.15
2024-01-11T10:12:40.485Z,36.70
2024-01-11T10:15:25.813Z,35.40
2024-01-11T10:18:11.997Z,35.67
2024-01-11T10:20:58.852Z,31.13
2024-01-11T10:23:44.432Z,30.13
2024-01-11T10:26:31.644Z,33.33
2024-01-11T10:29:19.216Z,32.30
2024-01-11T10:32:05.830Z,31.38
2024-01-11T10:34:50.880Z,32.95
2024-01-11T10:37:40.068Z,31.77
2024-01-11T10:40:26.767Z,35.50
2024-01-11T10:43:16.709Z,34.17
2024-01-11T10:46:05.412Z,30.35
2024-01-11T10:48:56.953Z,29.73
2024-01-11T10:51:46.115Z,29.25
2024-01-11T10:54:32.562Z,28.67
2024-01-11T10:57:19.159Z,28.65
2024-01-11T11:00:04.773Z,29.92
2024-01-11T11:02:52.208Z,26.08
2024-01-11T11:05:38.629Z,28.20
2024-01-11T11:08:26.067Z,26.15
2024-01-11T11:11:12.707Z,25.73
2024-01-11T11:14:03.701Z,27.88
2024-01-11T11:16:52.097Z,30.02
2024-01-11T11:19:38.261Z,28.52
2024-01-11T11:22:24.001Z,27.27
2024-01-11T11:25:25.857Z,23.63
2024-01-11T11:28:14.532Z,25.27
2024-01-11T11:31:04.016Z,24.95
2024-01-11T11:33:51.481Z,25.33
2024-01-11T11:36:37.519Z,25.75
2024-01-11T11:39:24.074Z,24.70
2024-01-11T11:42:11.218Z,24.02
2024-01-11T11:44:58.871Z,20.48
2024-01-11T11:47:47.163Z,21.50
2024-01-11T11:50:33.065Z,19.40
2024-01-11T11:53:20.065Z,21.35
2024-01-11T11:56:06.081Z,19.88
2024-01-11T11:58:53.901Z,18.55
2024-01-11T12:01:40.988Z,19.90
2024-01-11T12:04:26.601Z,18.52
2024-01-11T12:07:12.613Z,17.75
2024-01-11T12:09:58.012Z,15.63
2024-01-11T12:12:47.417Z,15.57
2024-01-11T12:15:32.811Z,13.77
2024-01-11T12:18:18.914Z,12.38
2024-01-11T12:21:05.197Z,10.50
2024-01-11T12:23:50.813Z,10.02
2024-01-11T12:26:36.662Z,11.02
2024-01-11T12:29:22.705Z,9.32
2024-01-11T12:32:12.134Z,8.70
2024-01-11T12:34:58.436Z,9.25
2024-01-11T12:37:56.672Z,8.68
2024-01-11T12:40:42.365Z,11.70
2024-01-11T12:43:27.710Z,9.13
2024-01-11T12:46:13.614Z,10.18
2024-01-11T12:48:59.307Z,10.75
2024-01-11T12:51:44.815Z,8.65
2024-01-11T12:54:34.646Z,9.82
2024-01-11T12:57:21.092Z,9.43
2024-01-11T13:00:14.747Z,9.27
2024-01-11T13:03:00.510Z,11.38
2024-01-11T13:05:46.082Z,13.18
2024-01-11T13:08:32.393Z,13.27
2024-01-11T13:11:19.046Z,11.57
2024-01-11T13:14:07.849Z,13.15
2024-01-11T13:16:53.799Z,12.23
2024-01-11T13:19:39.579Z,14.32
2024-01-11T13:22:26.230Z,13.10
2024-01-11T13:25:11.580Z,16.27
2024-01-11T13:27:57.088Z,15.68
2024-01-11T13:30:44.230Z,17.77
2024-01-11T13:33:29.837Z,16.23
2024-01-11T13:36:15.609Z,16.77
2024-01-11T13:39:01.652Z,17.98
2024-01-11T13:41:48.432Z,16.38
2024-01-11T13:44:34.170Z,18.90
2024-01-11T13:47:20.038Z,18.45
2024-01-11T13:50:06.037Z,19.98
2024-01-11T13:52:51.976Z,18.75
2024-01-11T13:55:41.316Z,19.35
2024-01-11T13:58:27.140Z,20.98
2024-01-11T14:01:14.736Z,18.52
2024-01-11T14:04:00.558Z,15.32
2024-01-11T14:06:46.061Z,16.95
2024-01-11T14:09:34.364Z,17.88
2024-01-11T14:12:20.088Z,20.98
2024-01-11T14:15:07.609Z,17.80
2024-01-11T14:17:53.708Z,18.38
2024-01-11T14:20:39.447Z,17.35
2024-01-11T14:23:25.137Z,19.83
2024-01-11T14:26:10.550Z,17.98
2024-01-11T14:28:56.161Z,20.45
2024-01-11T14:31:41.793Z,23.63
2024-01-11T14:34:28.805Z,25.27
2024-01-11T14:37:15.727Z,25.70
2024-01-11T14:40:01.878Z,22.42
2024-01-11T14:42:47.817Z,21.42
2024-01-11T14:45:33.128Z,23.42
2024-01-11T14:48:18.885Z,20.80
2024-01-11T14:51:05.837Z,20.00
2024-01-11T14:53:52.623Z,21.63
2024-01-11T14:56:38.287Z,21.92
2024-01-11T14:59:23.893Z,19.00
2024-01-11T15:02:10.695Z,18.50
2024-01-11T15:04:56.489Z,20.25
2024-01-11T15:07:42.041Z,20.08
2024-01-11T15:10:27.762Z,17.40
2024-01-11T15:13:13.170Z,20.08
2024-01-11T15:15:58.558Z,17.48
2024-01-11T15:18:44.208Z,20.25
2024-01-11T15:21:29.818Z,19.42
2024-01-11T15:24:16.445Z,18.50
2024-01-11T15:27:03.498Z,18.40
2024-01-11T15:29:49.239Z,18.63
2024-01-11T15:32:35.353Z,18.23
2024-01-11T15:35:20.932Z,19.02
2024-01-11T15:38:06.659Z,17.92
2024-01-11T15:40:52.072Z,18.77
2024-01-11T15:43:38.215Z,17.75
2024-01-11T15:46:23.787Z,20.10
2024-01-11T15:49:09.671Z,18.88
2024-01-11T15:51:55.213Z,20.50
2024-01-11T15:54:41.027Z,19.20
2024-01-11T15:57:26.456Z,19.42
2024-01-11T16:00:12.874Z,19.95
2024-01-11T16:02:58.728Z,18.15
2024-01-11T16:05:45.021Z,17.33
2024-01-11T16:08:30.833Z,16.77
2024-01-11T16:11:16.536Z,18.10
2024-01-11T16:14:01.942Z,18.17
2024-01-11T16:16:47.640Z,19.45
2024-01-11T16:19:35.077Z,17.83
2024-01-11T16:22:21.535Z,18.17
2024-01-11T16:25:07.127Z,19.27
2024-01-11T16:27:53.737Z,24.13
2024-01-11T16:30:39.778Z,23.70
2024-01-11T16:33:26.539Z,23.13
2024-01-11T16:36:12.223Z,24.83
2024-01-11T16:38:57.574Z,22.52
2024-01-11T16:41:43.634Z,25.60
2024-01-11T16:44:29.725Z,32.15
2024-01-11T16:47:16.274Z,30.00
2024-01-11T16:50:01.420Z,28.75
2024-01-11T16:52:47.111Z,28.67
2024-01-11T16:55:33.664Z,31.25
2024-01-11T16:58:19.346Z,33.42
2024-01-11T17:01:05.300Z,29.63
2024-01-11T17:03:50.907Z,31.17
2024-01-11T17:06:36.332Z,23.63
2024-01-11T17:09:21.835Z,22.65
2024-01-11T17:12:08.187Z,18.13
2024-01-11T17:14:57.494Z,19.08
2024-01-11T17:17:43.627Z,20.80
2024-01-11T17:20:29.324Z,18.80
2024-01-11T17:23:16.362Z,16.33
2024-01-11T17:26:04.669Z,19.20
2024-01-11T17:28:50.462Z,19.48
2024-01-11T17:31:38.313Z,16.60
2024-01-11T17:34:23.906Z,19.65
2024-01-11T17:37:12.564Z,18.83
2024-01-11T17:39:57.949Z,21.73
2024-01-11T17:42:43.665Z,21.83
2024-01-11T17:45:29.688Z,21.05
2024-01-11T17:48:16.045Z,23.05
2024-01-11T17:51:01.854Z,23.67
2024-01-11T17:53:53.696Z,24.70
2024-01-11T17:56:43.026Z,24.27
2024-01-11T17:59:28.513Z,24.90
2024-01-11T18:02:14.292Z,24.95
2024-01-11T18:05:01.338Z,22.98
2024-01-11T18:07:47.339Z,23.35
2024-01-11T18:10:40.225Z,20.25
2024-01-11T18:13:26.677Z,24.38
2024-01-11T18:16:12.073Z,24.88
2024-01-11T18:18:57.436Z,22.90
2024-01-11T18:21:43.099Z,21.42
2024-01-11T18:24:29.290Z,28.40
2024-01-11T18:27:15.204Z,29.15
2024-01-11T18:30:01.126Z,33.13
2024-01-11T18:32:47.500Z,31.50
2024-01-11T18:35:33.365Z,26.42
2024-01-11T18:38:19.937Z,26.45
2024-01-11T18:41:08.072Z,25.85
2024-01-11T18:43:54.134Z,22.50
2024-01-11T18:46:40.556Z,31.80
2024-01-11T18:49:26.247Z,25.98
2024-01-11T18:52:11.678Z,28.95
2024-01-11T18:55:05.282Z,27.60
2024-01-11T18:57:58.731Z,24.48
2024-01-11T19:00:46.184Z,24.85
2024-01-11T19:03:31.865Z,34.78
2024-01-11T19:06:17.653Z,30.08
2024-01-11T19:09:04.642Z,25.38
2024-01-11T19:11:51.711Z,25.90
2024-01-11T19:14:37.390Z,26.10
2024-01-11T19:17:23.132Z,23.40
2024-01-11T19:20:08.814Z,29.48
2024-01-11T19:22:54.514Z,33.20
2024-01-11T19:25:39.678Z,25.33
2024-01-11T19:28:25.718Z,21.58
2024-01-11T19:31:11.314Z,26.33
2024-01-11T19:33:56.916Z,25.38
2024-01-11T19:36:42.840Z,26.30
2024-01-11T19:39:28.468Z,34.10
2024-01-11T19:42:14.164Z,31.48
2024-01-11T19:44:59.673Z,31.23
2024-01-11T19:47:45.201Z,28.35
2024-01-11T19:50:33.799Z,25.00
2024-01-11T19:53:19.688Z,30.00
2024-01-11T19:56:19.491Z,26.20
2024-01-11T19:59:05.390Z,22.75
2024-01-11T20:01:52.269Z,22.00
2024-01-11T20:04:39.375Z,25.80
2024-01-11T20:07:25.130Z,32.80
2024-01-11T20:10:10.445Z,34.45
2024-01-11T20:12:56.094Z,26.92
2024-01-11T20:15:41.492Z,30.67
2024-01-11T20:18:28.918Z,26.15
2024-01-11T20:21:14.643Z,27.85
2024-01-11T20:24:00.570Z,25.30
2024-01-11T20:26:48.957Z,20.95
2024-01-11T20:29:34.598Z,23.83
2024-01-11T20:32:20.420Z,29.70
2024-01-11T20:35:06.477Z,27.67
2024-01-11T20:37:51.973Z,27.85
2024-01-11T20:40:37.229Z,30.13
2024-01-11T20:43:23.025Z,31.20
2024-01-11T20:46:08.677Z,22.48
2024-01-11T20:48:54.466Z,22.83
2024-01-11T20:51:43.912Z,26.63
2024-01-11T20:54:29.438Z,28.63
2024-01-11T20:57:15.151Z,22.77
2024-01-11T21:00:00.892Z,25.02
2024-01-11T21:02:47.000Z,24.85
2024-01-11T21:05:32.612Z,27.70
2024-01-11T21:08:18.169Z,16.27
2024-01-11T21:11:03.985Z,22.38
2024-01-11T21:13:50.412Z,22.00
2024-01-11T21:16:36.209Z,28.48
2024-01-11T21:19:21.793Z,23.65
2024-01-11T21:22:07.365Z,22.95
2024-01-11T21:24:54.258Z,21.05
2024-01-11T21:27:40.700Z,19.90
2024-01-11T21:30:26.045Z,20.27
2024-01-11T21:33:11.948Z,21.23
2024-01-11T21:35:57.414Z,24.63
2024-01-11T21:38:42.794Z,23.00
2024-01-11T21:41:28.814Z,22.80
2024-01-11T21:44:14.649Z,22.20
2024-01-11T21:46:59.977Z,25.83
2024-01-11T21:49:45.534Z,28.98
2024-01-11T21:52:31.097Z,20.65
2024-01-11T21:55:16.784Z,25.60
2024-01-11T21:58:02.010Z,22.65
2024-01-11T22:00:48.071Z,19.48
2024-01-11T22:03:38.784Z,17.05
2024-01-11T22:06:27.869Z,23.80
2024-01-11T22:09:13.673Z,16.25
2024-01-11T22:11:59.339Z,15.80
2024-01-11T22:14:44.747Z,21.92
2024-01-11T22:17:30.197Z,17.60
2024-01-11T22:20:15.869Z,19.92
2024-01-11T22:23:01.434Z,14.93
2024-01-11T22:25:47.106Z,17.30
2024-01-11T22:28:32.541Z,27.85
2024-01-11T22:31:18.608Z,24.42
2024-01-11T22:34:04.869Z,14.18
2024-01-11T22:36:50.555Z,17.63
2024-01-11T22:39:35.901Z,19.30
2024-01-11T22:42:21.795Z,12.40
2024-01-11T22:45:07.994Z,10.30
2024-01-11T22:47:53.604Z,10.55
2024-01-11T22:50:39.368Z,12.50
2024-01-11T22:53:24.953Z,11.35
2024-01-11T22:56:10.570Z,10.65
2024-01-11T22:58:56.015Z,9.10
2024-01-11T23:01:44.623Z,13.68
2024-01-11T23:04:34.472Z,15.40
2024-01-11T23:07:20.089Z,12.25
2024-01-11T23:10:06.096Z,6.90
2024-01-11T23:12:51.369Z,12.32
2024-01-11T23:15:38.215Z,15.23
2024-01-11T23:18:23.863Z,10.68
2024-01-11T23:21:10.132Z,14.50
2024-01-11T23:23:55.758Z,16.33
2024-01-11T23:26:41.319Z,8.57
2024-01-11T23:29:26.471Z,8.35
2024-01-11T23:32:12.160Z,9.52
2024-01-11T23:34:57.686Z,9.45
2024-01-11T23:37:43.408Z,10.43
2024-01-11T23:40:29.182Z,8.93
2024-01-11T23:43:14.529Z,8.43
2024-01-11T23:45:59.868Z,9.15
2024-01-11T23:48:48.045Z,8.25
2024-01-11T23:51:33.721Z,8.50
2024-01-11T23:54:19.485Z,6.93
2024-01-11T23:57:05.039Z,8.75
2024-01-11T23:59:50.685Z,7.53
